sensor_id;sensor_type;location;lat;lon;timestamp;pressure;altitude;pressure_sealevel;temperature;humidity
60258;BME280;46115;44.484;11.314;2022-11-20T00:02:51;99623.75;;;10.48;100.00
60258;BME280;46115;44.484;11.314;2022-11-20T00:06:54;99630.72;;;10.63;100.00
60258;BME280;46115;44.484;11.314;2022-11-20T00:11:02;99633.47;;;10.48;100.00
60258;BME280;46115;44.484;11.314;2022-11-20T00:15:06;99636.13;;;10.48;100.00
60258;BME280;46115;44.484;11.314;2022-11-20T00:19:09;99642.91;;;10.38;100.00
60258;BME280;46115;44.484;11.314;2022-11-20T00:23:11;99646.88;;;10.45;100.00
60258;BME280;46115;44.484;11.314;2022-11-20T00:27:15;99633.28;;;10.37;100.00
60258;BME280;46115;44.484;11.314;2022-11-20T00:31:18;99633.66;;;10.30;100.00
60258;BME280;46115;44.484;11.314;2022-11-20T00:35:21;99634.88;;;10.39;100.00
60258;BME280;46115;44.484;11.314;2022-11-20T00:39:23;99640.75;;;10.44;100.00
60258;BME280;46115;44.484;11.314;2022-11-20T00:43:27;99644.97;;;10.32;100.00
60258;BME280;46115;44.484;11.314;2022-11-20T00:47:30;99651.66;;;10.24;100.00
60258;BME280;46115;44.484;11.314;2022-11-20T00:51:32;99648.44;;;10.19;100.00
60258;BME280;46115;44.484;11.314;2022-11-20T00:55:34;99649.88;;;10.24;100.00
60258;BME280;46115;44.484;11.314;2022-11-20T00:59:38;99663.44;;;10.18;100.00
60258;BME280;46115;44.484;11.314;2022-11-20T01:03:42;99660.13;;;10.15;100.00
60258;BME280;46115;44.484;11.314;2022-11-20T01:07:45;99664.28;;;10.19;100.00
60258;BME280;46115;44.484;11.314;2022-11-20T01:11:47;99671.44;;;10.17;100.00
60258;BME280;46115;44.484;11.314;2022-11-20T01:15:51;99664.56;;;10.14;100.00
60258;BME280;46115;44.484;11.314;2022-11-20T01:19:53;99678.19;;;10.22;100.00
60258;BME280;46115;44.484;11.314;2022-11-20T01:23:56;99674.56;;;10.09;100.00
60258;BME280;46115;44.484;11.314;2022-11-20T01:27:59;99677.47;;;10.19;100.00
60258;BME280;46115;44.484;11.314;2022-11-20T01:32:03;99677.28;;;10.08;100.00
60258;BME280;46115;44.484;11.314;2022-11-20T01:36:07;99673.84;;;10.06;100.00
60258;BME280;46115;44.484;11.314;2022-11-20T01:40:10;99680.63;;;10.25;100.00
60258;BME280;46115;44.484;11.314;2022-11-20T01:44:15;99683.13;;;10.13;100.00
60258;BME280;46115;44.484;11.314;2022-11-20T01:48:20;99694.13;;;10.21;100.00
60258;BME280;46115;44.484;11.314;2022-11-20T01:52:27;99701.44;;;10.16;100.00
60258;BME280;46115;44.484;11.314;2022-11-20T01:56:36;99709.06;;;10.06;100.00
60258;BME280;46115;44.484;11.314;2022-11-20T02:00:40;99703.97;;;10.47;100.00
60258;BME280;46115;44.484;11.314;2022-11-20T02:04:45;99715.00;;;10.10;100.00
60258;BME280;46115;44.484;11.314;2022-11-20T02:08:48;99712.91;;;10.30;100.00
60258;BME280;46115;44.484;11.314;2022-11-20T02:12:51;99699.34;;;10.07;100.00
60258;BME280;46115;44.484;11.314;2022-11-20T02:17:11;99712.78;;;10.02;100.00
60258;BME280;46115;44.484;11.314;2022-11-20T02:21:21;99706.91;;;10.13;100.00
60258;BME280;46115;44.484;11.314;2022-11-20T02:25:27;99704.50;;;10.24;100.00
60258;BME280;46115;44.484;11.314;2022-11-20T02:29:35;99696.34;;;10.13;100.00
60258;BME280;46115;44.484;11.314;2022-11-20T02:33:39;99720.22;;;10.41;100.00
60258;BME280;46115;44.484;11.314;2022-11-20T02:37:41;99721.38;;;10.21;100.00
60258;BME280;46115;44.484;11.314;2022-11-20T02:41:45;99710.75;;;10.07;100.00
60258;BME280;46115;44.484;11.314;2022-11-20T02:45:48;99714.72;;;10.14;100.00
60258;BME280;46115;44.484;11.314;2022-11-20T02:49:50;99723.03;;;10.08;100.00
60258;BME280;46115;44.484;11.314;2022-11-20T02:53:53;99730.44;;;10.31;100.00
60258;BME280;46115;44.484;11.314;2022-11-20T02:57:56;99719.69;;;10.05;100.00
60258;BME280;46115;44.484;11.314;2022-11-20T03:01:59;99701.03;;;10.08;100.00
60258;BME280;46115;44.484;11.314;2022-11-20T03:06:01;99705.13;;;10.13;100.00
60258;BME280;46115;44.484;11.314;2022-11-20T03:10:05;99718.78;;;10.20;100.00
60258;BME280;46115;44.484;11.314;2022-11-20T03:14:09;99716.38;;;10.01;100.00
60258;BME280;46115;44.484;11.314;2022-11-20T03:18:11;99718.53;;;9.94;100.00
60258;BME280;46115;44.484;11.314;2022-11-20T03:22:14;99707.47;;;9.88;100.00
60258;BME280;46115;44.484;11.314;2022-11-20T03:26:18;99713.63;;;10.02;100.00
60258;BME280;46115;44.484;11.314;2022-11-20T03:30:23;99707.66;;;9.85;100.00
60258;BME280;46115;44.484;11.314;2022-11-20T03:34:25;99709.94;;;9.91;100.00
60258;BME280;46115;44.484;11.314;2022-11-20T03:38:29;99730.03;;;9.93;100.00
60258;BME280;46115;44.484;11.314;2022-11-20T03:42:31;99718.78;;;9.90;100.00
60258;BME280;46115;44.484;11.314;2022-11-20T03:46:50;99725.72;;;9.77;100.00
60258;BME280;46115;44.484;11.314;2022-11-20T03:50:53;99728.69;;;9.70;100.00
60258;BME280;46115;44.484;11.314;2022-11-20T03:54:55;99733.03;;;9.87;100.00
60258;BME280;46115;44.484;11.314;2022-11-20T03:58:58;99738.84;;;9.78;100.00
60258;BME280;46115;44.484;11.314;2022-11-20T04:03:02;99739.03;;;9.75;100.00
60258;BME280;46115;44.484;11.314;2022-11-20T04:07:05;99742.84;;;9.69;100.00
60258;BME280;46115;44.484;11.314;2022-11-20T04:11:08;99741.66;;;9.59;100.00
60258;BME280;46115;44.484;11.314;2022-11-20T04:15:10;99753.78;;;9.93;100.00
60258;BME280;46115;44.484;11.314;2022-11-20T04:19:15;99740.94;;;9.87;100.00
60258;BME280;46115;44.484;11.314;2022-11-20T04:23:18;99735.84;;;9.68;100.00
60258;BME280;46115;44.484;11.314;2022-11-20T04:27:20;99730.94;;;9.62;100.00
60258;BME280;46115;44.484;11.314;2022-11-20T04:31:25;99738.50;;;9.68;100.00
60258;BME280;46115;44.484;11.314;2022-11-20T04:35:29;99736.59;;;9.86;100.00
60258;BME280;46115;44.484;11.314;2022-11-20T04:39:31;99707.84;;;9.66;100.00
60258;BME280;46115;44.484;11.314;2022-11-20T04:43:33;99745.56;;;9.84;100.00
60258;BME280;46115;44.484;11.314;2022-11-20T04:47:36;99745.31;;;9.73;100.00
60258;BME280;46115;44.484;11.314;2022-11-20T04:51:42;99743.84;;;9.67;100.00
60258;BME280;46115;44.484;11.314;2022-11-20T04:55:45;99764.13;;;9.66;100.00
60258;BME280;46115;44.484;11.314;2022-11-20T04:59:47;99753.91;;;9.76;100.00
60258;BME280;46115;44.484;11.314;2022-11-20T05:03:50;99750.91;;;9.82;100.00
60258;BME280;46115;44.484;11.314;2022-11-20T05:07:55;99752.81;;;9.64;100.00
60258;BME280;46115;44.484;11.314;2022-11-20T05:11:58;99760.97;;;9.60;100.00
60258;BME280;46115;44.484;11.314;2022-11-20T05:16:04;99764.38;;;9.62;100.00
60258;BME280;46115;44.484;11.314;2022-11-20T05:20:08;99777.16;;;9.54;100.00
60258;BME280;46115;44.484;11.314;2022-11-20T05:24:12;99771.19;;;9.50;100.00
60258;BME280;46115;44.484;11.314;2022-11-20T05:28:14;99782.00;;;9.61;100.00
60258;BME280;46115;44.484;11.314;2022-11-20T05:32:17;99782.00;;;9.61;100.00
60258;BME280;46115;44.484;11.314;2022-11-20T05:36:19;99792.91;;;9.55;100.00
60258;BME280;46115;44.484;11.314;2022-11-20T05:40:23;99804.13;;;9.59;100.00
60258;BME280;46115;44.484;11.314;2022-11-20T05:44:25;99804.97;;;9.59;100.00
60258;BME280;46115;44.484;11.314;2022-11-20T05:48:28;99811.69;;;9.65;100.00
60258;BME280;46115;44.484;11.314;2022-11-20T05:52:30;99821.84;;;9.57;100.00
60258;BME280;46115;44.484;11.314;2022-11-20T05:56:34;99828.31;;;9.67;100.00
60258;BME280;46115;44.484;11.314;2022-11-20T06:00:37;99824.41;;;9.74;100.00
60258;BME280;46115;44.484;11.314;2022-11-20T06:04:39;99833.16;;;9.59;100.00
60258;BME280;46115;44.484;11.314;2022-11-20T06:08:41;99831.72;;;9.53;100.00
60258;BME280;46115;44.484;11.314;2022-11-20T06:12:45;99833.06;;;9.45;100.00
60258;BME280;46115;44.484;11.314;2022-11-20T06:16:48;99836.66;;;9.44;100.00
60258;BME280;46115;44.484;11.314;2022-11-20T06:20:50;99845.06;;;9.50;100.00
60258;BME280;46115;44.484;11.314;2022-11-20T06:25:00;99846.34;;;9.43;100.00
60258;BME280;46115;44.484;11.314;2022-11-20T06:29:04;99837.31;;;9.47;100.00
60258;BME280;46115;44.484;11.314;2022-11-20T06:33:06;99845.59;;;9.57;100.00
60258;BME280;46115;44.484;11.314;2022-11-20T06:37:08;99847.13;;;9.45;100.00
60258;BME280;46115;44.484;11.314;2022-11-20T06:41:12;99838.94;;;9.50;100.00
60258;BME280;46115;44.484;11.314;2022-11-20T06:45:17;99805.88;;;9.27;100.00
60258;BME280;46115;44.484;11.314;2022-11-20T06:49:19;99846.59;;;9.54;100.00
60258;BME280;46115;44.484;11.314;2022-11-20T06:53:21;99848.47;;;9.52;100.00
60258;BME280;46115;44.484;11.314;2022-11-20T06:57:24;99858.69;;;9.58;100.00
60258;BME280;46115;44.484;11.314;2022-11-20T07:01:28;99870.31;;;9.72;100.00
60258;BME280;46115;44.484;11.314;2022-11-20T07:05:30;99880.91;;;9.70;100.00
60258;BME280;46115;44.484;11.314;2022-11-20T07:09:32;99879.94;;;9.73;100.00
60258;BME280;46115;44.484;11.314;2022-11-20T07:13:35;99879.13;;;9.70;100.00
60258;BME280;46115;44.484;11.314;2022-11-20T07:17:38;99883.41;;;9.73;100.00
60258;BME280;46115;44.484;11.314;2022-11-20T07:21:41;99897.53;;;10.04;100.00
60258;BME280;46115;44.484;11.314;2022-11-20T07:25:43;99897.69;;;11.08;96.71
60258;BME280;46115;44.484;11.314;2022-11-20T07:29:46;99901.88;;;11.40;93.04
60258;BME280;46115;44.484;11.314;2022-11-20T07:33:50;99892.53;;;11.63;90.80
60258;BME280;46115;44.484;11.314;2022-11-20T07:37:52;99904.81;;;12.61;86.25
60258;BME280;46115;44.484;11.314;2022-11-20T07:41:54;99906.72;;;12.59;84.13
60258;BME280;46115;44.484;11.314;2022-11-20T07:45:57;99919.28;;;13.34;83.30
60258;BME280;46115;44.484;11.314;2022-11-20T07:50:01;99927.00;;;13.88;78.11
60258;BME280;46115;44.484;11.314;2022-11-20T07:54:03;99938.56;;;13.87;78.66
60258;BME280;46115;44.484;11.314;2022-11-20T07:58:06;99941.59;;;15.15;72.95
60258;BME280;46115;44.484;11.314;2022-11-20T08:02:09;99918.56;;;14.68;72.71
60258;BME280;46115;44.484;11.314;2022-11-20T08:06:14;99949.84;;;16.14;66.97
60258;BME280;46115;44.484;11.314;2022-11-20T08:10:16;99962.72;;;17.06;64.20
60258;BME280;46115;44.484;11.314;2022-11-20T08:14:19;99955.38;;;16.88;64.43
60258;BME280;46115;44.484;11.314;2022-11-20T08:18:20;99955.59;;;17.58;61.13
60258;BME280;46115;44.484;11.314;2022-11-20T08:22:24;99966.09;;;17.50;60.30
60258;BME280;46115;44.484;11.314;2022-11-20T08:26:27;99980.31;;;18.82;57.87
60258;BME280;46115;44.484;11.314;2022-11-20T08:30:30;99979.72;;;19.46;55.76
60258;BME280;46115;44.484;11.314;2022-11-20T08:34:33;99983.97;;;19.00;54.07
60258;BME280;46115;44.484;11.314;2022-11-20T08:38:37;99986.63;;;20.88;52.10
60258;BME280;46115;44.484;11.314;2022-11-20T08:42:46;99987.31;;;21.07;49.64
60258;BME280;46115;44.484;11.314;2022-11-20T08:46:48;99997.03;;;20.18;51.60
60258;BME280;46115;44.484;11.314;2022-11-20T08:50:50;99991.41;;;20.94;49.76
60258;BME280;46115;44.484;11.314;2022-11-20T08:54:54;100003.47;;;21.25;49.02
60258;BME280;46115;44.484;11.314;2022-11-20T08:58:57;100002.97;;;19.65;53.43
60258;BME280;46115;44.484;11.314;2022-11-20T09:03:00;99999.22;;;20.87;50.64
60258;BME280;46115;44.484;11.314;2022-11-20T09:07:02;100009.19;;;19.66;52.77
60258;BME280;46115;44.484;11.314;2022-11-20T09:11:06;100018.31;;;19.92;53.12
60258;BME280;46115;44.484;11.314;2022-11-20T09:15:09;100011.91;;;19.17;55.17
60258;BME280;46115;44.484;11.314;2022-11-20T09:19:12;100006.94;;;18.93;56.88
60258;BME280;46115;44.484;11.314;2022-11-20T09:23:15;100007.19;;;17.70;60.52
60258;BME280;46115;44.484;11.314;2022-11-20T09:27:19;100007.63;;;17.54;61.32
60258;BME280;46115;44.484;11.314;2022-11-20T09:31:23;100008.03;;;17.70;61.10
60258;BME280;46115;44.484;11.314;2022-11-20T09:35:27;100004.53;;;16.85;63.12
60258;BME280;46115;44.484;11.314;2022-11-20T09:39:29;100016.81;;;16.54;65.70
60258;BME280;46115;44.484;11.314;2022-11-20T09:43:45;100013.94;;;16.12;66.67
60258;BME280;46115;44.484;11.314;2022-11-20T09:48:08;100015.63;;;16.25;67.11
60258;BME280;46115;44.484;11.314;2022-11-20T09:52:24;100009.53;;;16.56;66.53
60258;BME280;46115;44.484;11.314;2022-11-20T09:56:28;100015.25;;;15.96;68.71
60258;BME280;46115;44.484;11.314;2022-11-20T10:00:32;100016.47;;;15.91;68.14
60258;BME280;46115;44.484;11.314;2022-11-20T10:04:39;100015.66;;;16.13;67.04
60258;BME280;46115;44.484;11.314;2022-11-20T10:08:51;100015.44;;;15.24;71.30
60258;BME280;46115;44.484;11.314;2022-11-20T10:13:17;100015.31;;;15.25;71.07
60258;BME280;46115;44.484;11.314;2022-11-20T10:17:35;100011.88;;;15.47;69.78
60258;BME280;46115;44.484;11.314;2022-11-20T10:21:55;100007.16;;;15.40;71.13
60258;BME280;46115;44.484;11.314;2022-11-20T10:26:02;100009.38;;;15.22;72.53
60258;BME280;46115;44.484;11.314;2022-11-20T10:30:08;100002.66;;;15.29;70.88
60258;BME280;46115;44.484;11.314;2022-11-20T10:34:18;99977.72;;;14.95;71.71
60258;BME280;46115;44.484;11.314;2022-11-20T10:38:26;99995.88;;;15.01;72.71
60258;BME280;46115;44.484;11.314;2022-11-20T10:42:37;99994.84;;;15.15;73.76
60258;BME280;46115;44.484;11.314;2022-11-20T10:46:44;99991.56;;;14.87;73.99
60258;BME280;46115;44.484;11.314;2022-11-20T10:50:57;99981.34;;;14.94;73.69
60258;BME280;46115;44.484;11.314;2022-11-20T10:55:07;99987.50;;;14.94;72.39
60258;BME280;46115;44.484;11.314;2022-11-20T10:59:47;99978.69;;;14.94;73.09
60258;BME280;46115;44.484;11.314;2022-11-20T11:03:52;99972.31;;;14.84;74.80
60258;BME280;46115;44.484;11.314;2022-11-20T11:07:57;99974.63;;;14.88;74.70
60258;BME280;46115;44.484;11.314;2022-11-20T11:12:00;99974.81;;;14.74;73.05
60258;BME280;46115;44.484;11.314;2022-11-20T11:16:03;99970.00;;;14.55;73.52
60258;BME280;46115;44.484;11.314;2022-11-20T11:20:15;99964.75;;;14.66;75.04
60258;BME280;46115;44.484;11.314;2022-11-20T11:24:22;99959.06;;;14.60;74.63
60258;BME280;46115;44.484;11.314;2022-11-20T11:28:25;99945.53;;;14.14;75.84
60258;BME280;46115;44.484;11.314;2022-11-20T11:32:28;99943.13;;;14.47;73.44
60258;BME280;46115;44.484;11.314;2022-11-20T11:36:33;99947.59;;;14.47;73.12
60258;BME280;46115;44.484;11.314;2022-11-20T11:40:39;99922.06;;;14.08;74.88
60258;BME280;46115;44.484;11.314;2022-11-20T11:44:44;99935.19;;;14.22;73.04
60258;BME280;46115;44.484;11.314;2022-11-20T11:49:15;99929.13;;;14.20;74.69
60258;BME280;46115;44.484;11.314;2022-11-20T11:53:19;99912.16;;;14.10;72.75
60258;BME280;46115;44.484;11.314;2022-11-20T11:57:31;99925.06;;;14.03;73.06
60258;BME280;46115;44.484;11.314;2022-11-20T12:01:37;99928.59;;;14.27;72.33
60258;BME280;46115;44.484;11.314;2022-11-20T12:05:43;99920.88;;;14.12;74.47
60258;BME280;46115;44.484;11.314;2022-11-20T12:09:52;99920.31;;;14.19;74.34
60258;BME280;46115;44.484;11.314;2022-11-20T12:14:00;99926.19;;;14.12;76.82
60258;BME280;46115;44.484;11.314;2022-11-20T12:18:08;99927.22;;;14.22;74.59
60258;BME280;46115;44.484;11.314;2022-11-20T12:22:22;99923.06;;;14.30;72.55
60258;BME280;46115;44.484;11.314;2022-11-20T12:26:39;99916.00;;;14.05;73.83
60258;BME280;46115;44.484;11.314;2022-11-20T12:30:55;99920.38;;;14.43;71.91
60258;BME280;46115;44.484;11.314;2022-11-20T12:35:10;99920.91;;;14.35;71.33
60258;BME280;46115;44.484;11.314;2022-11-20T12:39:34;99915.72;;;14.21;70.68
60258;BME280;46115;44.484;11.314;2022-11-20T12:43:43;99904.47;;;14.18;70.60
60258;BME280;46115;44.484;11.314;2022-11-20T12:52:48;99900.31;;;14.26;68.05
60258;BME280;46115;44.484;11.314;2022-11-20T12:56:57;99898.53;;;13.90;70.32
60258;BME280;46115;44.484;11.314;2022-11-20T13:01:09;99893.91;;;14.05;67.89
60258;BME280;46115;44.484;11.314;2022-11-20T13:05:46;99900.34;;;13.77;68.43
60258;BME280;46115;44.484;11.314;2022-11-20T13:09:51;99899.72;;;13.73;67.73
60258;BME280;46115;44.484;11.314;2022-11-20T13:14:11;99894.66;;;13.32;67.84
60258;BME280;46115;44.484;11.314;2022-11-20T13:18:14;99891.78;;;13.61;68.56
60258;BME280;46115;44.484;11.314;2022-11-20T13:22:25;99879.78;;;13.42;70.42
60258;BME280;46115;44.484;11.314;2022-11-20T13:26:28;99868.44;;;13.28;69.39
60258;BME280;46115;44.484;11.314;2022-11-20T13:30:31;99864.88;;;13.53;68.47
60258;BME280;46115;44.484;11.314;2022-11-20T13:34:34;99870.44;;;13.24;69.17
60258;BME280;46115;44.484;11.314;2022-11-20T13:38:43;99876.56;;;13.63;68.51
60258;BME280;46115;44.484;11.314;2022-11-20T13:42:55;99871.72;;;13.31;69.77
60258;BME280;46115;44.484;11.314;2022-11-20T13:46:58;99874.53;;;13.16;72.10
60258;BME280;46115;44.484;11.314;2022-11-20T13:51:23;99872.72;;;13.16;72.42
60258;BME280;46115;44.484;11.314;2022-11-20T13:55:36;99874.06;;;13.23;71.48
60258;BME280;46115;44.484;11.314;2022-11-20T13:59:49;99833.69;;;13.05;70.45
60258;BME280;46115;44.484;11.314;2022-11-20T14:03:54;99866.63;;;13.28;70.22
60258;BME280;46115;44.484;11.314;2022-11-20T14:07:57;99868.31;;;13.29;69.05
60258;BME280;46115;44.484;11.314;2022-11-20T14:12:02;99849.34;;;13.23;67.92
60258;BME280;46115;44.484;11.314;2022-11-20T14:16:05;99864.50;;;13.33;68.52
60258;BME280;46115;44.484;11.314;2022-11-20T14:20:12;99857.66;;;13.17;69.57
60258;BME280;46115;44.484;11.314;2022-11-20T14:24:19;99876.28;;;13.29;70.08
60258;BME280;46115;44.484;11.314;2022-11-20T14:28:26;99880.16;;;12.98;69.33
60258;BME280;46115;44.484;11.314;2022-11-20T14:32:30;99868.38;;;13.15;70.72
60258;BME280;46115;44.484;11.314;2022-11-20T14:36:33;99873.13;;;12.72;73.51
60258;BME280;46115;44.484;11.314;2022-11-20T14:40:36;99875.44;;;12.76;72.62
60258;BME280;46115;44.484;11.314;2022-11-20T14:44:41;99883.94;;;12.81;73.14
60258;BME280;46115;44.484;11.314;2022-11-20T14:48:46;99890.06;;;12.69;72.85
60258;BME280;46115;44.484;11.314;2022-11-20T14:52:53;99894.94;;;12.63;70.61
60258;BME280;46115;44.484;11.314;2022-11-20T14:56:58;99890.91;;;12.57;70.04
60258;BME280;46115;44.484;11.314;2022-11-20T15:01:04;99889.31;;;12.55;71.20
60258;BME280;46115;44.484;11.314;2022-11-20T15:05:06;99898.13;;;12.68;70.35
60258;BME280;46115;44.484;11.314;2022-11-20T15:09:13;99882.09;;;12.57;70.31
60258;BME280;46115;44.484;11.314;2022-11-20T15:13:19;99894.94;;;12.36;71.91
60258;BME280;46115;44.484;11.314;2022-11-20T15:17:26;99888.88;;;12.21;72.37
60258;BME280;46115;44.484;11.314;2022-11-20T15:21:29;99892.66;;;12.17;73.08
60258;BME280;46115;44.484;11.314;2022-11-20T15:25:31;99889.84;;;12.06;73.75
60258;BME280;46115;44.484;11.314;2022-11-20T15:29:33;99887.38;;;12.03;74.04
60258;BME280;46115;44.484;11.314;2022-11-20T15:33:37;99885.53;;;11.91;74.92
60258;BME280;46115;44.484;11.314;2022-11-20T15:37:40;99883.84;;;11.90;76.19
60258;BME280;46115;44.484;11.314;2022-11-20T15:41:43;99880.03;;;11.79;77.46
60258;BME280;46115;44.484;11.314;2022-11-20T15:45:47;99860.66;;;11.65;77.76
60258;BME280;46115;44.484;11.314;2022-11-20T15:49:52;99869.56;;;11.35;80.80
60258;BME280;46115;44.484;11.314;2022-11-20T15:53:55;99854.72;;;11.47;80.46
60258;BME280;46115;44.484;11.314;2022-11-20T15:57:58;99860.56;;;11.38;80.04
60258;BME280;46115;44.484;11.314;2022-11-20T16:02:00;99849.34;;;11.20;81.01
60258;BME280;46115;44.484;11.314;2022-11-20T23:06:09;99907.88;;;6.86;92.02
60258;BME280;46115;44.484;11.314;2022-11-20T23:10:12;99913.50;;;6.99;91.52
60258;BME280;46115;44.484;11.314;2022-11-20T23:14:15;99910.16;;;6.96;90.79
60258;BME280;46115;44.484;11.314;2022-11-20T23:18:17;99937.00;;;7.02;91.09
60258;BME280;46115;44.484;11.314;2022-11-20T23:22:21;99937.22;;;6.98;90.79
60258;BME280;46115;44.484;11.314;2022-11-20T23:26:25;99935.97;;;7.06;90.14
60258;BME280;46115;44.484;11.314;2022-11-20T23:30:27;99937.66;;;6.87;91.37
60258;BME280;46115;44.484;11.314;2022-11-20T23:34:30;99947.66;;;6.99;90.57
60258;BME280;46115;44.484;11.314;2022-11-20T23:38:33;99949.63;;;6.94;90.43
60258;BME280;46115;44.484;11.314;2022-11-20T23:42:36;99938.97;;;6.97;91.14
60258;BME280;46115;44.484;11.314;2022-11-20T23:46:58;99925.16;;;6.92;90.60
60258;BME280;46115;44.484;11.314;2022-11-20T23:51:02;99903.09;;;6.76;90.26
60258;BME280;46115;44.484;11.314;2022-11-20T23:55:07;99923.44;;;6.91;90.30
60258;BME280;46115;44.484;11.314;2022-11-20T23:59:09;99908.22;;;6.79;90.44
